createdAt,value
2017-05-28T00:00:00.283Z,60.61
2017-05-28T00:01:00.268Z,60.8
2017-05-28T00:02:00.247Z,60.71
2017-05-28T00:03:00.231Z,60.61
2017-05-28T00:04:00.214Z,60.52
2017-05-28T00:05:00.201Z,60.52
2017-05-28T00:06:00.190Z,60.61
2017-05-28T00:07:00.154Z,60.61
2017-05-28T00:08:00.141Z,60.42
2017-05-28T00:09:00.120Z,60.52
2017-05-28T00:10:00.101Z,60.52
2017-05-28T00:11:00.132Z,60.71
2017-05-28T00:12:00.127Z,60.71
2017-05-28T00:13:00.055Z,60.52
2017-05-28T00:14:00.027Z,60.13
2017-05-28T00:15:00.009Z,61
2017-05-28T00:15:59.992Z,61.1
2017-05-28T00:17:00.025Z,60.9
2017-05-28T00:17:59.955Z,61.19
2017-05-28T00:18:59.940Z,61.48
2017-05-28T00:19:59.921Z,60.9
2017-05-28T00:20:59.905Z,60.8
2017-05-28T00:21:59.885Z,61.87
2017-05-28T00:22:59.866Z,61.96
2017-05-28T00:23:59.851Z,61.87
2017-05-28T00:24:59.832Z,61.65
2017-05-28T00:25:59.813Z,61.87
2017-05-28T00:27:00.053Z,61.83
2017-05-28T00:27:59.775Z,61.68
2017-05-28T00:28:59.760Z,62.41
2017-05-28T00:29:59.737Z,62.45
2017-05-28T00:30:59.719Z,62.35
2017-05-28T00:31:59.700Z,62.12
2017-05-28T00:32:59.682Z,62.12
2017-05-28T00:33:59.364Z,62.6
2017-05-28T00:34:59.646Z,62.41
2017-05-28T00:35:59.625Z,62.41
2017-05-28T00:36:59.608Z,62.6
2017-05-28T00:37:59.590Z,62.7
2017-05-28T00:38:59.574Z,62.6
2017-05-28T00:39:59.554Z,62.8
2017-05-28T00:40:59.541Z,62.9
2017-05-28T00:41:59.518Z,62.99
2017-05-28T00:42:59.515Z,62.8
2017-05-28T00:43:59.479Z,63.47
2017-05-28T00:44:59.462Z,63.38
2017-05-28T00:45:59.447Z,63.95
2017-05-28T00:46:59.431Z,63.67
2017-05-28T00:47:59.419Z,63.95
2017-05-28T00:48:59.443Z,64.05
2017-05-28T00:49:59.375Z,63.76
2017-05-28T00:50:59.353Z,64.05
2017-05-28T00:51:59.332Z,64.34
2017-05-28T00:52:59.365Z,64.34
2017-05-28T00:53:59.296Z,64.31
2017-05-28T00:54:59.283Z,64.43
2017-05-28T00:55:59.260Z,64.31
2017-05-28T00:56:59.248Z,64.21
2017-05-28T00:57:59.225Z,64.21
2017-05-28T00:58:59.201Z,64.4
2017-05-28T00:59:59.183Z,64.31
2017-05-28T01:00:59.171Z,64.69
2017-05-28T01:01:59.152Z,65.11
2017-05-28T01:02:59.135Z,64.98
2017-05-28T01:03:59.115Z,64.5
2017-05-28T01:04:59.097Z,64.59
2017-05-28T01:05:59.074Z,64.5
2017-05-28T01:06:59.061Z,64.59
2017-05-28T01:07:59.036Z,64.89
2017-05-28T01:08:59.021Z,65.27
2017-05-28T01:09:59.054Z,65.27
2017-05-28T01:10:58.984Z,64.79
2017-05-28T01:11:58.662Z,64.98
2017-05-28T01:12:58.944Z,64.79
2017-05-28T01:13:58.927Z,65.17
2017-05-28T01:14:58.906Z,65.08
2017-05-28T01:15:58.887Z,65.17
2017-05-28T01:16:58.874Z,65.56
2017-05-28T01:17:58.848Z,65.56
2017-05-28T01:18:58.840Z,65.56
2017-05-28T01:19:58.821Z,65.46
2017-05-28T01:20:58.796Z,65.27
2017-05-28T01:21:58.780Z,65.46
2017-05-28T01:22:58.758Z,65.66
2017-05-28T01:23:58.743Z,65.85
2017-05-28T01:24:58.723Z,65.63
2017-05-28T01:25:58.704Z,65.66
2017-05-28T01:26:58.685Z,65.63
2017-05-28T01:27:58.670Z,66.1
2017-05-28T01:28:58.654Z,65.75
2017-05-28T01:29:58.630Z,65.94
2017-05-28T01:30:58.615Z,65.81
2017-05-28T01:31:58.589Z,65.81
2017-05-28T01:32:58.574Z,65.81
2017-05-28T01:33:58.553Z,65.91
2017-05-28T01:34:58.534Z,65.53
2017-05-28T01:35:58.514Z,65.53
2017-05-28T01:36:58.497Z,65.72
2017-05-28T01:37:58.482Z,65.56
2017-05-28T01:38:58.458Z,65.63
2017-05-28T01:39:58.449Z,65.72
2017-05-28T01:40:58.424Z,65.81
2017-05-28T01:41:58.406Z,65.91
2017-05-28T01:42:58.388Z,65.81
2017-05-28T01:43:58.368Z,65.91
2017-05-28T01:44:58.404Z,65.72
2017-05-28T01:45:58.328Z,65.91
2017-05-28T01:46:58.310Z,66.01
2017-05-28T01:47:58.294Z,65.72
2017-05-28T01:48:58.283Z,66.49
2017-05-28T01:49:58.256Z,66.3
2017-05-28T01:50:58.242Z,66.1
2017-05-28T01:51:58.215Z,66.2
2017-05-28T01:52:58.202Z,66.58
2017-05-28T01:53:58.178Z,67.07
2017-05-28T01:54:58.163Z,66.58
2017-05-28T01:55:58.142Z,67.26
2017-05-28T01:56:58.126Z,66.88
2017-05-28T01:57:58.112Z,66.88
2017-05-28T01:58:58.093Z,66.78
2017-05-28T01:59:58.069Z,67.65
2017-05-28T02:00:58.050Z,67.45
2017-05-28T02:01:58.028Z,67.93
2017-05-28T02:02:58.014Z,67.83
2017-05-28T02:03:57.998Z,67.93
2017-05-28T02:04:57.976Z,67.16
2017-05-28T02:05:57.958Z,67.65
2017-05-28T02:06:57.939Z,67.61
2017-05-28T02:07:57.920Z,67.61
2017-05-28T02:08:57.898Z,67.8
2017-05-28T02:09:57.878Z,67.71
2017-05-28T02:10:57.861Z,67.99
2017-05-28T02:11:57.848Z,67.71
2017-05-28T02:12:57.825Z,67.8
2017-05-28T02:13:57.808Z,67.61
2017-05-28T02:14:57.785Z,67.9
2017-05-28T02:15:57.769Z,67.42
2017-05-28T02:16:57.753Z,67.71
2017-05-28T02:17:57.731Z,67.99
2017-05-28T02:18:57.711Z,67.9
2017-05-28T02:19:57.700Z,67.99
2017-05-28T02:20:57.676Z,68.19
2017-05-28T02:21:57.652Z,67.8
2017-05-28T02:22:57.640Z,67.99
2017-05-28T02:23:57.622Z,68.19
2017-05-28T02:24:57.601Z,67.99
2017-05-28T02:25:57.637Z,68.09
2017-05-28T02:26:57.568Z,68.29
2017-05-28T02:27:57.545Z,68.48
2017-05-28T02:28:57.526Z,68.76
2017-05-28T02:29:57.503Z,68.86
2017-05-28T02:30:57.483Z,68.38
2017-05-28T02:31:57.464Z,68.19
2017-05-28T02:32:57.445Z,68.38
2017-05-28T02:33:57.425Z,68.57
2017-05-28T02:34:57.407Z,68.48
2017-05-28T02:35:57.395Z,68.48
2017-05-28T02:36:57.369Z,68.19
2017-05-28T02:37:57.060Z,68.57
2017-05-28T02:38:57.030Z,68.48
2017-05-28T02:39:57.314Z,69.15
2017-05-28T02:40:57.295Z,68.96
2017-05-28T02:41:57.273Z,69.06
2017-05-28T02:42:57.258Z,68.96
2017-05-28T02:43:57.237Z,69.24
2017-05-28T02:44:57.217Z,68.86
2017-05-28T02:45:57.204Z,69.06
2017-05-28T02:46:57.186Z,69.24
2017-05-28T02:47:57.168Z,69.34
2017-05-28T02:48:57.146Z,68.67
2017-05-28T02:49:57.123Z,68.76
2017-05-28T02:50:57.107Z,68.76
2017-05-28T02:51:57.092Z,68.67
2017-05-28T02:52:57.122Z,69.06
2017-05-28T02:53:57.048Z,69.06
2017-05-28T02:54:57.029Z,69.53
2017-05-28T02:55:57.007Z,69.44
2017-05-28T02:56:56.989Z,69.44
2017-05-28T02:57:56.970Z,69.82
2017-05-28T02:58:56.949Z,69.34
2017-05-28T02:59:56.929Z,69.44
2017-05-28T03:00:56.911Z,69.34
2017-05-28T03:01:56.898Z,69.21
2017-05-28T03:02:56.879Z,69.5
2017-05-28T03:03:56.854Z,69.5
2017-05-28T03:04:56.841Z,69.5
2017-05-28T03:05:56.819Z,69.98
2017-05-28T03:06:56.806Z,69.98
2017-05-28T03:07:56.786Z,69.89
2017-05-28T03:08:56.768Z,69.69
2017-05-28T03:09:56.738Z,69.79
2017-05-28T03:10:56.728Z,69.79
2017-05-28T03:11:56.705Z,69.89
2017-05-28T03:12:56.684Z,70.17
2017-05-28T03:13:56.669Z,69.89
2017-05-28T03:14:56.648Z,70.27
2017-05-28T03:15:56.679Z,69.89
2017-05-28T03:16:56.610Z,70.07
2017-05-28T03:17:56.649Z,70.56
2017-05-28T03:18:56.578Z,70.46
2017-05-28T03:19:56.562Z,70.37
2017-05-28T03:20:56.534Z,69.98
2017-05-28T03:21:56.520Z,70.27
2017-05-28T03:22:56.512Z,69.98
2017-05-28T03:23:56.473Z,69.98
2017-05-28T03:24:56.457Z,70.17
2017-05-28T03:25:56.439Z,69.98
2017-05-28T03:26:56.421Z,69.89
2017-05-28T03:27:56.401Z,69.98
2017-05-28T03:28:56.387Z,69.89
2017-05-28T03:29:56.366Z,69.89
2017-05-28T03:30:56.350Z,69.6
2017-05-28T03:31:56.319Z,69.6
2017-05-28T03:32:56.304Z,69.63
2017-05-28T03:33:56.291Z,69.73
2017-05-28T03:34:56.271Z,69.82
2017-05-28T03:35:56.249Z,69.44
2017-05-28T03:36:56.231Z,69.73
2017-05-28T03:37:56.214Z,69.73
2017-05-28T03:38:56.190Z,70.11
2017-05-28T03:39:56.173Z,69.82
2017-05-28T03:40:56.150Z,70.11
2017-05-28T03:41:56.145Z,70.01
2017-05-28T03:42:56.114Z,70.59
2017-05-28T03:43:56.101Z,70.59
2017-05-28T03:44:56.080Z,70.01
2017-05-28T03:45:56.062Z,70.3
2017-05-28T03:46:56.044Z,70.21
2017-05-28T03:47:56.021Z,70.01
2017-05-28T03:48:56.002Z,70.01
2017-05-28T03:49:55.979Z,70.11
2017-05-28T03:50:55.962Z,69.92
2017-05-28T03:51:55.949Z,69.63
2017-05-28T03:52:55.926Z,69.73
2017-05-28T03:53:55.907Z,70.01
2017-05-28T03:54:55.890Z,70.11
2017-05-28T03:55:55.872Z,70.3
2017-05-28T03:56:55.854Z,70.4
2017-05-28T03:57:55.833Z,70.4
2017-05-28T03:58:55.812Z,70.98
2017-05-28T03:59:55.801Z,70.59
2017-05-28T04:00:55.774Z,70.59
2017-05-28T04:01:55.765Z,70.59
2017-05-28T04:02:55.737Z,70.24
2017-05-28T04:03:55.721Z,70.4
2017-05-28T04:04:55.702Z,70.53
2017-05-28T04:05:55.680Z,70.53
2017-05-28T04:06:55.716Z,70.53
2017-05-28T04:07:55.643Z,70.72
2017-05-28T04:08:55.624Z,70.43
2017-05-28T04:09:55.609Z,70.24
2017-05-28T04:10:55.587Z,70.62
2017-05-28T04:11:55.570Z,70.62
2017-05-28T04:12:55.551Z,70.62
2017-05-28T04:13:55.530Z,70.43
2017-05-28T04:14:55.511Z,70.34
2017-05-28T04:15:55.494Z,70.53
2017-05-28T04:16:55.477Z,70.24
2017-05-28T04:17:55.459Z,69.85
2017-05-28T04:18:55.438Z,69.89
2017-05-28T04:19:55.425Z,69.51
2017-05-28T04:20:55.397Z,69.22
2017-05-28T04:21:55.380Z,68.84
2017-05-28T04:22:55.362Z,68.74
2017-05-28T04:23:55.348Z,68.93
2017-05-28T04:24:55.324Z,69.22
2017-05-28T04:25:55.304Z,68.64
2017-05-28T04:26:55.283Z,68.74
2017-05-28T04:27:55.271Z,68.44
2017-05-28T04:28:55.248Z,68.93
2017-05-28T04:29:55.226Z,68.35
2017-05-28T04:30:55.218Z,68.54
2017-05-28T04:31:55.193Z,68.54
2017-05-28T04:32:55.176Z,68.96
2017-05-28T04:33:55.159Z,68.58
2017-05-28T04:34:55.141Z,68.19
2017-05-28T04:35:55.125Z,68.35
2017-05-28T04:36:55.100Z,68.35
2017-05-28T04:37:55.082Z,68.58
2017-05-28T04:38:55.064Z,69.12
2017-05-28T04:39:55.048Z,68.93
2017-05-28T04:40:55.028Z,69.22
2017-05-28T04:41:55.012Z,68.84
2017-05-28T04:42:55.053Z,69.12
2017-05-28T04:43:54.971Z,68.96
2017-05-28T04:44:54.997Z,68.74
2017-05-28T04:45:54.933Z,68.74
2017-05-28T04:46:54.915Z,69.6
2017-05-28T04:47:54.895Z,69.41
2017-05-28T04:48:54.873Z,69.6
2017-05-28T04:49:54.858Z,69.93
2017-05-28T04:50:54.839Z,69.41
2017-05-28T04:51:54.822Z,69.6
2017-05-28T04:52:54.805Z,69.7
2017-05-28T04:53:54.835Z,69.79
2017-05-28T04:54:54.815Z,69.51
2017-05-28T04:55:54.745Z,69.6
2017-05-28T04:56:54.729Z,69.99
2017-05-28T04:57:54.707Z,69.99
2017-05-28T04:58:54.693Z,69.99
2017-05-28T04:59:54.666Z,69.89
2017-05-28T05:00:54.648Z,69.7
2017-05-28T05:01:54.634Z,69.89
2017-05-28T05:02:54.618Z,70.28
2017-05-28T05:03:54.356Z,70.37
2017-05-28T05:04:54.578Z,70.56
2017-05-28T05:05:54.562Z,70.47
2017-05-28T05:06:54.543Z,70.28
2017-05-28T05:07:54.528Z,70.47
2017-05-28T05:08:54.503Z,70.56
2017-05-28T05:09:54.189Z,70.82
2017-05-28T05:10:54.463Z,71.04
2017-05-28T05:11:54.445Z,71.14
2017-05-28T05:12:54.426Z,70.95
2017-05-28T05:13:54.425Z,71.24
2017-05-28T05:14:54.393Z,70.95
2017-05-28T05:15:54.376Z,70.62
2017-05-28T05:16:54.354Z,70.82
2017-05-28T05:17:54.337Z,70.62
2017-05-28T05:18:54.322Z,71.04
2017-05-28T05:19:54.296Z,71.01
2017-05-28T05:20:54.285Z,71.11
2017-05-28T05:21:54.263Z,71.11
2017-05-28T05:22:54.239Z,71.2
2017-05-28T05:23:54.226Z,71.11
2017-05-28T05:24:54.206Z,71.69
2017-05-28T05:25:54.182Z,71.59
2017-05-28T05:26:54.165Z,71.3
2017-05-28T05:27:54.148Z,71.3
2017-05-28T05:28:54.127Z,71.69
2017-05-28T05:29:54.126Z,71.3
2017-05-28T05:30:54.139Z,71.3
2017-05-28T05:31:54.074Z,71.3
2017-05-28T05:32:54.055Z,71.01
2017-05-28T05:33:54.036Z,71.2
2017-05-28T05:34:53.714Z,71.3
2017-05-28T05:35:53.999Z,71.4
2017-05-28T05:36:53.685Z,71.49
2017-05-28T05:37:53.967Z,71.49
2017-05-28T05:38:53.945Z,71.49
2017-05-28T05:39:53.931Z,71.69
2017-05-28T05:40:53.906Z,71.3
2017-05-28T05:41:53.885Z,71.2
2017-05-28T05:42:53.868Z,71.2
2017-05-28T05:43:53.549Z,71.59
2017-05-28T05:44:53.844Z,71.69
2017-05-28T05:45:53.810Z,71.49
2017-05-28T05:46:53.796Z,71.49
2017-05-28T05:47:53.776Z,71.11
2017-05-28T05:48:53.756Z,71.4
2017-05-28T05:49:53.738Z,71.2
2017-05-28T05:50:53.720Z,71.49
2017-05-28T05:51:53.406Z,71.2
2017-05-28T05:52:53.390Z,71.97
2017-05-28T05:53:53.669Z,72.17
2017-05-28T05:54:53.649Z,72.07
2017-05-28T05:55:53.625Z,72.36
2017-05-28T05:56:53.605Z,71.3
2017-05-28T05:57:53.616Z,71.3
2017-05-28T05:58:53.570Z,71.69
2017-05-28T05:59:53.553Z,72.07
2017-05-28T06:00:53.536Z,71.78
2017-05-28T06:01:53.563Z,71.55
2017-05-28T06:02:53.494Z,72.26
2017-05-28T06:03:53.477Z,72.74
2017-05-28T06:04:53.459Z,72.45
2017-05-28T06:05:53.438Z,72.74
2017-05-28T06:06:53.416Z,72.45
2017-05-28T06:07:53.404Z,72.45
2017-05-28T06:08:53.383Z,72.36
2017-05-28T06:09:53.363Z,72.26
2017-05-28T06:10:53.394Z,72.36
2017-05-28T06:11:53.321Z,72.74
2017-05-28T06:12:53.306Z,72.45
2017-05-28T06:13:53.284Z,72.36
2017-05-28T06:14:53.273Z,72.65
2017-05-28T06:15:53.258Z,72.84
2017-05-28T06:16:53.233Z,72.78
2017-05-28T06:17:53.211Z,72.88
2017-05-28T06:18:53.194Z,72.78
2017-05-28T06:19:53.177Z,72.78
2017-05-28T06:20:53.154Z,72.97
2017-05-28T06:21:53.135Z,72.78
2017-05-28T06:22:53.118Z,73.26
2017-05-28T06:23:53.104Z,73.74
2017-05-28T06:24:53.084Z,75.38
2017-05-28T06:25:52.762Z,76.34
2017-05-28T06:26:53.051Z,77.17
2017-05-28T06:27:53.027Z,77.75
2017-05-28T06:28:53.008Z,78.03
2017-05-28T06:29:52.993Z,78.03
2017-05-28T06:30:52.970Z,78.42
2017-05-28T06:31:52.951Z,78.33
2017-05-28T06:32:52.934Z,78.58
2017-05-28T06:33:52.914Z,79.05
2017-05-28T06:34:52.895Z,79.05
2017-05-28T06:35:52.873Z,79.82
2017-05-28T06:36:52.860Z,80.21
2017-05-28T06:37:52.843Z,80.5
2017-05-28T06:38:52.825Z,80.84
2017-05-28T06:39:52.801Z,80.84
2017-05-28T06:40:52.834Z,81.52
2017-05-28T06:41:52.762Z,81.71
2017-05-28T06:42:52.744Z,82.05
2017-05-28T06:43:52.778Z,82.92
2017-05-28T06:44:52.705Z,83.3
2017-05-28T06:45:52.687Z,83.87
2017-05-28T06:46:52.669Z,83.93
2017-05-28T06:47:52.653Z,84.36
2017-05-28T06:48:52.931Z,85.18
2017-05-28T06:49:52.614Z,84.51
2017-05-28T06:50:52.295Z,85.18
2017-05-28T06:51:52.572Z,85.57
2017-05-28T06:52:52.553Z,85.85
2017-05-28T06:53:52.533Z,86.05
2017-05-28T06:54:52.514Z,86.05
2017-05-28T06:55:52.501Z,86.24
2017-05-28T06:56:52.472Z,86.43
2017-05-28T06:57:52.459Z,86.43
2017-05-28T06:58:52.435Z,86.33
2017-05-28T06:59:52.420Z,86.81
2017-05-28T07:00:52.098Z,86.81
2017-05-28T07:01:52.384Z,87.19
2017-05-28T07:02:52.363Z,87.68
2017-05-28T07:03:52.338Z,87.68
2017-05-28T07:04:52.325Z,88.45
2017-05-28T07:05:52.302Z,88.16
2017-05-28T07:06:52.281Z,88.83
2017-05-28T07:07:52.267Z,88.54
2017-05-28T07:08:52.253Z,88.54
2017-05-28T07:09:52.227Z,89.02
2017-05-28T07:10:52.203Z,89.12
2017-05-28T07:11:52.187Z,88.68
2017-05-28T07:12:52.221Z,89.07
2017-05-28T07:13:52.152Z,89.07
2017-05-28T07:14:52.127Z,88.73
2017-05-28T07:15:52.105Z,89.4
2017-05-28T07:16:52.095Z,87.96
2017-05-28T07:17:52.118Z,88.24
2017-05-28T07:18:52.051Z,87.9
2017-05-28T07:19:52.032Z,88
2017-05-28T07:20:52.021Z,88.1
2017-05-28T07:21:51.992Z,88.29
2017-05-28T07:22:51.982Z,88.87
2017-05-28T07:23:51.963Z,88.87
2017-05-28T07:24:51.986Z,88.91
2017-05-28T07:25:51.923Z,88.71
2017-05-28T07:26:51.901Z,88.53
2017-05-28T07:27:51.880Z,88.81
2017-05-28T07:28:51.860Z,88.76
2017-05-28T07:29:51.842Z,88.47
2017-05-28T07:30:51.833Z,88.9
2017-05-28T07:31:51.813Z,88.42
2017-05-28T07:32:51.796Z,87.94
2017-05-28T07:33:51.776Z,87.6
2017-05-28T07:34:51.752Z,86.63
2017-05-28T07:35:51.740Z,87.21
2017-05-28T07:36:51.723Z,86.77
2017-05-28T07:37:51.706Z,86.96
2017-05-28T07:38:51.421Z,87.4
2017-05-28T07:39:51.677Z,86.08
2017-05-28T07:40:51.652Z,83.91
2017-05-28T07:41:51.706Z,82.69
2017-05-28T07:42:51.618Z,81.13
2017-05-28T07:43:51.612Z,79.04
2017-05-28T07:44:51.590Z,78.99
2017-05-28T07:45:51.636Z,78.64
2017-05-28T07:46:51.560Z,77.61
2017-05-28T07:47:51.546Z,77.06
2017-05-28T07:48:51.536Z,76.29
2017-05-28T07:49:51.570Z,77.2
2017-05-28T07:50:51.506Z,76.46
2017-05-28T07:51:51.497Z,74.37
2017-05-28T07:52:51.498Z,73.43
2017-05-28T07:53:51.475Z,72.45
2017-05-28T07:54:51.459Z,70.71
2017-05-28T07:55:51.446Z,69.48
2017-05-28T07:56:51.439Z,70.61
2017-05-28T07:57:51.428Z,71.2
2017-05-28T07:58:51.415Z,71.03
2017-05-28T07:59:51.459Z,71.23
2017-05-28T08:00:51.401Z,70.29
2017-05-28T08:01:51.395Z,69.22
2017-05-28T08:02:51.382Z,69.35
2017-05-28T08:03:51.364Z,68.48
2017-05-28T08:04:51.359Z,68.09
2017-05-28T08:05:51.355Z,68.67
2017-05-28T08:06:51.338Z,68.57
2017-05-28T08:07:51.035Z,68.38
2017-05-28T08:08:51.374Z,67.73
2017-05-28T08:09:51.319Z,68.12
2017-05-28T08:10:51.311Z,65.43
2017-05-28T08:11:51.300Z,66.73
2017-05-28T08:12:51.344Z,65.85
2017-05-28T08:13:51.287Z,63.15
2017-05-28T08:14:51.285Z,61.01
2017-05-28T08:15:51.269Z,58.4
2017-05-28T08:16:51.321Z,56
2017-05-28T08:17:51.255Z,53.68
2017-05-28T08:18:51.299Z,52.05
2017-05-28T08:19:51.246Z,50.1
2017-05-28T08:20:51.236Z,49.41
2017-05-28T08:21:51.234Z,49.24
2017-05-28T08:22:51.223Z,48.65
2017-05-28T08:23:51.223Z,47.7
2017-05-28T08:24:51.217Z,47.41
2017-05-28T08:25:51.205Z,46.75
2017-05-28T08:26:51.254Z,46.08
2017-05-28T08:27:51.195Z,45.4
2017-05-28T08:28:51.192Z,45.4
2017-05-28T08:29:51.185Z,44.93
2017-05-28T08:30:50.874Z,44.83
2017-05-28T08:31:51.175Z,45.2
2017-05-28T08:32:51.173Z,45.86
2017-05-28T08:33:51.160Z,45.94
2017-05-28T08:34:51.150Z,46.21
2017-05-28T08:35:51.149Z,46.53
2017-05-28T08:36:51.141Z,46.14
2017-05-28T08:37:51.187Z,46.06
2017-05-28T08:38:51.140Z,45.98
2017-05-28T08:39:51.130Z,44.81
2017-05-28T08:40:51.142Z,45.1
2017-05-28T08:41:51.120Z,45.67
2017-05-28T08:42:51.111Z,45.57
2017-05-28T08:43:51.101Z,46.04
2017-05-28T08:44:51.099Z,46.41
2017-05-28T08:45:51.097Z,46.6
2017-05-28T08:46:51.390Z,46.48
2017-05-28T08:47:51.077Z,46.97
2017-05-28T08:48:51.077Z,47.73
2017-05-28T08:49:51.067Z,47.83
2017-05-28T08:50:51.059Z,49.15
2017-05-28T08:51:51.058Z,49.24
2017-05-28T08:52:51.045Z,49.32
2017-05-28T08:53:51.042Z,48.75
2017-05-28T08:54:51.040Z,47.9
2017-05-28T08:55:51.029Z,47.63
2017-05-28T08:56:51.016Z,47.66
2017-05-28T08:57:51.010Z,47.07
2017-05-28T08:58:51.004Z,46.97
2017-05-28T08:59:50.695Z,45.82
2017-05-28T09:00:50.988Z,46.7
2017-05-28T09:01:50.987Z,46.88
2017-05-28T09:02:50.983Z,47.05
2017-05-28T09:03:50.972Z,47.14
2017-05-28T09:04:50.960Z,47.63
2017-05-28T09:05:50.958Z,47.83
2017-05-28T09:06:50.950Z,47.73
2017-05-28T09:07:50.943Z,47.63
2017-05-28T09:08:50.933Z,46.95
2017-05-28T09:09:50.932Z,46.85
2017-05-28T09:10:50.921Z,46.56
2017-05-28T09:11:50.913Z,46.56
2017-05-28T09:12:50.904Z,46.95
2017-05-28T09:13:50.897Z,46.66
2017-05-28T09:14:50.890Z,45.97
2017-05-28T09:15:50.883Z,45.9
2017-05-28T09:16:50.878Z,46
2017-05-28T09:17:50.880Z,45.33
2017-05-28T09:18:50.880Z,45.26
2017-05-28T09:19:50.860Z,44.4
2017-05-28T09:20:50.854Z,44.2
2017-05-28T09:21:50.846Z,43.27
2017-05-28T09:22:50.842Z,42.48
2017-05-28T09:23:50.835Z,42.19
2017-05-28T09:24:50.835Z,41.41
2017-05-28T09:25:50.823Z,41.6
2017-05-28T09:26:50.814Z,41.7
2017-05-28T09:27:50.813Z,41.99
2017-05-28T09:28:50.809Z,42.27
2017-05-28T09:29:50.802Z,42.35
2017-05-28T09:30:50.799Z,42.17
2017-05-28T09:31:50.788Z,42.17
2017-05-28T09:32:50.789Z,41.97
2017-05-28T09:33:50.779Z,41.78
2017-05-28T09:34:50.779Z,41.49
2017-05-28T09:35:50.771Z,41.58
2017-05-28T09:36:50.463Z,41.86
2017-05-28T09:37:50.755Z,41.96
2017-05-28T09:38:50.752Z,42.13
2017-05-28T09:39:50.749Z,41.96
2017-05-28T09:40:50.741Z,41.86
2017-05-28T09:41:50.733Z,42.22
2017-05-28T09:42:50.733Z,42.42
2017-05-28T09:43:50.725Z,43.38
2017-05-28T09:44:50.710Z,43.28
2017-05-28T09:45:50.411Z,43.38
2017-05-28T09:46:50.712Z,42.79
2017-05-28T09:47:50.702Z,42.99
2017-05-28T09:48:50.692Z,43.28
2017-05-28T09:49:50.683Z,43.85
2017-05-28T09:50:50.678Z,44.73
2017-05-28T09:51:50.668Z,45.19
2017-05-28T09:52:50.667Z,45.85
2017-05-28T09:53:50.658Z,46.02
2017-05-28T09:54:50.652Z,47.07
2017-05-28T09:55:50.636Z,47.36
2017-05-28T09:56:50.636Z,47.83
2017-05-28T09:57:50.326Z,48.49
2017-05-28T09:58:50.629Z,49.07
2017-05-28T09:59:50.603Z,49.34
2017-05-28T10:00:50.599Z,49.41
2017-05-28T10:01:50.283Z,50.97
2017-05-28T10:02:50.576Z,51.14
2017-05-28T10:03:50.571Z,51.7
2017-05-28T10:04:50.561Z,51.99
2017-05-28T10:05:50.793Z,51.57
2017-05-28T10:06:50.537Z,52.74
2017-05-28T10:07:50.531Z,54.75
2017-05-28T10:08:50.213Z,55.89
2017-05-28T10:09:50.502Z,57.8
2017-05-28T10:10:50.489Z,58.97
2017-05-28T10:11:50.475Z,59.81
2017-05-28T10:12:50.466Z,60.78
2017-05-28T10:13:50.452Z,62.3
2017-05-28T10:14:50.441Z,62.07
2017-05-28T10:15:50.426Z,63.04
2017-05-28T10:16:50.411Z,63.27
2017-05-28T10:17:50.400Z,62.98
2017-05-28T10:18:50.085Z,63.17
2017-05-28T10:19:50.370Z,62.33
2017-05-28T10:20:50.359Z,62.4
2017-05-28T10:21:50.346Z,63.17
2017-05-28T10:22:50.377Z,63.1
2017-05-28T10:23:50.325Z,62.33
2017-05-28T10:24:50.313Z,60.35
2017-05-28T10:25:50.298Z,60.09
2017-05-28T10:26:50.287Z,59.44
2017-05-28T10:27:50.279Z,58.86
2017-05-28T10:28:50.325Z,58.95
2017-05-28T10:29:50.260Z,58.28
2017-05-28T10:30:50.237Z,57.46
2017-05-28T10:31:50.228Z,56.77
2017-05-28T10:32:50.213Z,56.39
2017-05-28T10:33:50.203Z,55.54
2017-05-28T10:34:50.193Z,54.21
2017-05-28T10:35:50.183Z,53.91
2017-05-28T10:36:50.179Z,52.75
2017-05-28T10:37:50.165Z,52.84
2017-05-28T10:38:50.148Z,52.45
2017-05-28T10:39:50.138Z,53.3
2017-05-28T10:40:50.130Z,53.01
2017-05-28T10:41:50.117Z,53.77
2017-05-28T10:42:50.107Z,53.67
2017-05-28T10:43:50.094Z,53.45
2017-05-28T10:44:50.085Z,53.74
2017-05-28T10:45:49.772Z,54.2
2017-05-28T10:46:50.067Z,54.49
2017-05-28T10:47:50.048Z,54.85
2017-05-28T10:48:50.037Z,55.33
2017-05-28T10:49:50.029Z,55.53
2017-05-28T10:50:50.009Z,55.11
2017-05-28T10:51:50.003Z,55.31
2017-05-28T10:52:49.983Z,55.41
2017-05-28T10:53:49.977Z,55.77
2017-05-28T10:54:49.969Z,55.77
2017-05-28T10:55:49.952Z,55.96
2017-05-28T10:56:49.941Z,56.05
2017-05-28T10:57:49.988Z,55.96
2017-05-28T10:58:49.913Z,55.96
2017-05-28T10:59:49.907Z,56.05
2017-05-28T11:00:49.891Z,55.77
2017-05-28T11:01:49.876Z,56.74
2017-05-28T11:02:49.619Z,55.77
2017-05-28T11:03:49.900Z,56.05
2017-05-28T11:04:49.847Z,55.87
2017-05-28T11:05:49.826Z,55.28
2017-05-28T11:06:49.872Z,55.74
2017-05-28T11:07:49.803Z,55.16
2017-05-28T11:08:49.798Z,55.44
2017-05-28T11:09:49.774Z,55.44
2017-05-28T11:10:49.762Z,55.83
2017-05-28T11:11:49.798Z,56.32
2017-05-28T11:12:49.733Z,56.71
2017-05-28T11:13:49.722Z,56.13
2017-05-28T11:14:49.709Z,56.41
2017-05-28T11:15:49.698Z,56.41
2017-05-28T11:16:49.689Z,55.06
2017-05-28T11:17:49.678Z,55.26
2017-05-28T11:18:49.705Z,55.22
2017-05-28T11:19:49.341Z,55.62
2017-05-28T11:20:49.642Z,55.68
2017-05-28T11:21:49.616Z,55.58
2017-05-28T11:22:49.600Z,55.52
2017-05-28T11:23:49.585Z,55.78
2017-05-28T11:24:49.574Z,55.52
2017-05-28T11:25:49.555Z,55.71
2017-05-28T11:26:49.546Z,56
2017-05-28T11:27:49.533Z,56.13
2017-05-28T11:28:49.523Z,55.54
2017-05-28T11:29:49.500Z,55.74
2017-05-28T11:30:49.501Z,56.03
2017-05-28T11:31:49.524Z,55.83
2017-05-28T11:32:49.469Z,56.59
2017-05-28T11:33:49.463Z,56.29
2017-05-28T11:34:49.450Z,56.68
2017-05-28T11:35:49.425Z,56.61
2017-05-28T11:36:49.416Z,56.59
2017-05-28T11:37:49.389Z,56.59
2017-05-28T11:38:49.377Z,57.45
2017-05-28T11:39:49.364Z,57.36
2017-05-28T11:40:49.351Z,57.36
2017-05-28T11:41:49.350Z,57.45
2017-05-28T11:42:49.331Z,57.17
2017-05-28T11:43:49.309Z,57.26
2017-05-28T11:44:49.286Z,57.26
2017-05-28T11:45:49.273Z,57.17
2017-05-28T11:46:48.956Z,57.48
2017-05-28T11:47:48.947Z,57.29
2017-05-28T11:48:49.233Z,57.29
2017-05-28T11:49:49.268Z,57.12
2017-05-28T11:50:49.201Z,56.64
2017-05-28T11:51:49.194Z,56.64
2017-05-28T11:52:49.185Z,57.32
2017-05-28T11:53:49.158Z,57.09
2017-05-28T11:54:49.146Z,57
2017-05-28T11:55:49.130Z,57.29
2017-05-28T11:56:49.116Z,57.78
2017-05-28T11:57:49.112Z,58.06
2017-05-28T11:58:49.090Z,57.68
2017-05-28T11:59:48.777Z,57.78
2017-05-28T12:00:49.111Z,58.45
2017-05-28T12:01:49.048Z,58.16
2017-05-28T12:02:49.033Z,58.84
2017-05-28T12:03:49.019Z,58.84
2017-05-28T12:04:48.710Z,58.74
2017-05-28T12:05:48.985Z,58.65
2017-05-28T12:06:48.972Z,58.84
2017-05-28T12:07:48.960Z,58.55
2017-05-28T12:08:48.943Z,58.94
2017-05-28T12:09:48.927Z,59.3
2017-05-28T12:10:48.914Z,59
2017-05-28T12:11:48.950Z,59.78
2017-05-28T12:12:48.584Z,59.69
2017-05-28T12:13:48.871Z,59.88
2017-05-28T12:14:48.859Z,59.88
2017-05-28T12:15:48.843Z,59.97
2017-05-28T12:16:48.824Z,58.91
2017-05-28T12:17:48.808Z,58.42
2017-05-28T12:18:48.792Z,58.14
2017-05-28T12:19:48.474Z,59
2017-05-28T12:20:48.466Z,58.69
2017-05-28T12:21:48.745Z,58.88
2017-05-28T12:22:48.742Z,59.36
2017-05-28T12:23:48.432Z,58.98
2017-05-28T12:24:48.718Z,58.88
2017-05-28T12:25:48.685Z,59.07
2017-05-28T12:26:48.678Z,58.98
2017-05-28T12:27:48.652Z,59.1
2017-05-28T12:28:48.643Z,59.07
2017-05-28T12:29:48.380Z,58.81
2017-05-28T12:30:48.864Z,58.81
2017-05-28T12:31:48.597Z,59.46
2017-05-28T12:32:48.582Z,59.56
2017-05-28T12:33:48.569Z,59.66
2017-05-28T12:34:48.294Z,59.75
2017-05-28T12:35:48.537Z,59.94
2017-05-28T12:36:48.578Z,59.94
2017-05-28T12:37:48.502Z,59.75
2017-05-28T12:38:48.489Z,59.66
2017-05-28T12:39:48.479Z,60.04
2017-05-28T12:40:48.452Z,60.14
2017-05-28T12:41:48.437Z,59.75
2017-05-28T12:42:48.122Z,59.94
2017-05-28T12:43:48.410Z,59.94
2017-05-28T12:44:48.391Z,59.94
2017-05-28T12:45:48.067Z,59.94
2017-05-28T12:46:48.356Z,60.62
2017-05-28T12:47:48.341Z,60.52
2017-05-28T12:48:48.324Z,60.36
2017-05-28T12:49:48.015Z,59.78
2017-05-28T12:50:47.988Z,59.88
2017-05-28T12:51:48.279Z,60.07
2017-05-28T12:52:47.956Z,59.39
2017-05-28T12:53:48.245Z,59
2017-05-28T12:54:48.230Z,59.3
2017-05-28T12:55:47.910Z,60.07